sensor_id;sensor_type;location;lat;lon;timestamp;P1;durP1;ratioP1;P2;durP2;ratioP2
70067;SDS011;57425;51.616;6.680;2023-08-31T00:00:39;2.30;;;1.15;;
70067;SDS011;57425;51.616;6.680;2023-08-31T00:03:07;1.38;;;0.82;;
70067;SDS011;57425;51.616;6.680;2023-08-31T00:05:38;3.05;;;1.27;;
70067;SDS011;57425;51.616;6.680;2023-08-31T00:08:07;1.73;;;1.30;;
70067;SDS011;57425;51.616;6.680;2023-08-31T00:10:36;2.47;;;1.05;;
70067;SDS011;57425;51.616;6.680;2023-08-31T00:13:02;9.00;;;1.52;;
70067;SDS011;57425;51.616;6.680;2023-08-31T00:15:28;5.70;;;1.38;;
70067;SDS011;57425;51.616;6.680;2023-08-31T00:17:54;3.47;;;1.40;;
70067;SDS011;57425;51.616;6.680;2023-08-31T00:20:20;5.50;;;1.52;;
70067;SDS011;57425;51.616;6.680;2023-08-31T00:22:46;2.85;;;1.02;;
70067;SDS011;57425;51.616;6.680;2023-08-31T00:25:12;1.70;;;1.30;;
70067;SDS011;57425;51.616;6.680;2023-08-31T00:27:37;3.28;;;1.05;;
70067;SDS011;57425;51.616;6.680;2023-08-31T00:30:05;1.55;;;0.95;;
70067;SDS011;57425;51.616;6.680;2023-08-31T00:32:36;2.15;;;1.15;;
70067;SDS011;57425;51.616;6.680;2023-08-31T00:35:02;7.13;;;1.42;;
70067;SDS011;57425;51.616;6.680;2023-08-31T00:37:28;4.00;;;1.60;;
70067;SDS011;57425;51.616;6.680;2023-08-31T00:39:54;4.25;;;1.17;;
70067;SDS011;57425;51.616;6.680;2023-08-31T00:42:20;2.45;;;1.20;;
70067;SDS011;57425;51.616;6.680;2023-08-31T00:44:46;6.22;;;1.42;;
70067;SDS011;57425;51.616;6.680;2023-08-31T00:47:13;4.25;;;1.35;;
70067;SDS011;57425;51.616;6.680;2023-08-31T00:49:39;1.75;;;1.08;;
70067;SDS011;57425;51.616;6.680;2023-08-31T00:52:05;1.48;;;1.30;;
70067;SDS011;57425;51.616;6.680;2023-08-31T00:54:32;16.63;;;1.58;;
70067;SDS011;57425;51.616;6.680;2023-08-31T00:56:58;4.68;;;1.13;;
70067;SDS011;57425;51.616;6.680;2023-08-31T00:59:23;1.55;;;1.30;;
70067;SDS011;57425;51.616;6.680;2023-08-31T01:02:03;3.10;;;1.38;;
70067;SDS011;57425;51.616;6.680;2023-08-31T01:04:53;1.70;;;1.30;;
70067;SDS011;57425;51.616;6.680;2023-08-31T01:10:32;3.20;;;1.33;;
70067;SDS011;57425;51.616;6.680;2023-08-31T01:13:04;3.40;;;1.20;;
70067;SDS011;57425;51.616;6.680;2023-08-31T01:15:39;1.88;;;1.20;;
70067;SDS011;57425;51.616;6.680;2023-08-31T01:18:07;3.47;;;1.80;;
70067;SDS011;57425;51.616;6.680;2023-08-31T01:23:41;8.57;;;1.40;;
70067;SDS011;57425;51.616;6.680;2023-08-31T01:26:18;3.50;;;1.60;;
70067;SDS011;57425;51.616;6.680;2023-08-31T01:28:45;4.78;;;1.40;;
70067;SDS011;57425;51.616;6.680;2023-08-31T01:31:12;2.80;;;1.40;;
70067;SDS011;57425;51.616;6.680;2023-08-31T01:33:39;3.47;;;1.40;;
70067;SDS011;57425;51.616;6.680;2023-08-31T01:36:05;3.33;;;1.55;;
70067;SDS011;57425;51.616;6.680;2023-08-31T01:41:07;2.05;;;1.10;;
70067;SDS011;57425;51.616;6.680;2023-08-31T01:43:38;1.73;;;1.10;;
70067;SDS011;57425;51.616;6.680;2023-08-31T01:46:06;3.58;;;2.00;;
70067;SDS011;57425;51.616;6.680;2023-08-31T01:48:37;2.63;;;1.52;;
70067;SDS011;57425;51.616;6.680;2023-08-31T01:51:04;2.83;;;1.73;;
70067;SDS011;57425;51.616;6.680;2023-08-31T01:53:30;2.30;;;1.52;;
70067;SDS011;57425;51.616;6.680;2023-08-31T01:55:56;3.30;;;1.85;;
70067;SDS011;57425;51.616;6.680;2023-08-31T01:58:21;3.13;;;1.83;;
70067;SDS011;57425;51.616;6.680;2023-08-31T02:00:47;2.42;;;1.60;;
70067;SDS011;57425;51.616;6.680;2023-08-31T02:03:13;1.85;;;1.50;;
70067;SDS011;57425;51.616;6.680;2023-08-31T02:05:39;5.00;;;1.70;;
70067;SDS011;57425;51.616;6.680;2023-08-31T02:08:04;3.95;;;1.63;;
70067;SDS011;57425;51.616;6.680;2023-08-31T02:10:30;10.90;;;1.98;;
70067;SDS011;57425;51.616;6.680;2023-08-31T02:12:56;3.50;;;2.40;;
70067;SDS011;57425;51.616;6.680;2023-08-31T02:15:21;4.18;;;1.63;;
70067;SDS011;57425;51.616;6.680;2023-08-31T02:17:47;3.40;;;1.95;;
70067;SDS011;57425;51.616;6.680;2023-08-31T02:20:13;6.60;;;1.75;;
70067;SDS011;57425;51.616;6.680;2023-08-31T02:22:41;3.50;;;1.55;;
70067;SDS011;57425;51.616;6.680;2023-08-31T02:25:06;8.27;;;1.88;;
70067;SDS011;57425;51.616;6.680;2023-08-31T02:27:32;3.47;;;1.90;;
70067;SDS011;57425;51.616;6.680;2023-08-31T02:29:58;6.93;;;1.77;;
70067;SDS011;57425;51.616;6.680;2023-08-31T02:32:24;10.35;;;2.13;;
70067;SDS011;57425;51.616;6.680;2023-08-31T02:34:49;3.75;;;2.03;;
70067;SDS011;57425;51.616;6.680;2023-08-31T02:37:15;2.95;;;2.05;;
70067;SDS011;57425;51.616;6.680;2023-08-31T02:39:41;3.72;;;1.67;;
70067;SDS011;57425;51.616;6.680;2023-08-31T02:42:07;2.78;;;1.70;;
70067;SDS011;57425;51.616;6.680;2023-08-31T02:44:33;6.88;;;2.33;;
70067;SDS011;57425;51.616;6.680;2023-08-31T02:46:58;5.97;;;2.55;;
70067;SDS011;57425;51.616;6.680;2023-08-31T02:49:24;5.82;;;2.20;;
70067;SDS011;57425;51.616;6.680;2023-08-31T02:51:50;5.85;;;1.92;;
70067;SDS011;57425;51.616;6.680;2023-08-31T02:54:16;5.55;;;1.65;;
70067;SDS011;57425;51.616;6.680;2023-08-31T02:56:41;2.75;;;1.85;;
70067;SDS011;57425;51.616;6.680;2023-08-31T02:59:07;4.65;;;3.03;;
70067;SDS011;57425;51.616;6.680;2023-08-31T03:01:34;3.30;;;2.08;;
70067;SDS011;57425;51.616;6.680;2023-08-31T03:04:00;9.15;;;2.40;;
70067;SDS011;57425;51.616;6.680;2023-08-31T03:06:25;5.45;;;2.25;;
70067;SDS011;57425;51.616;6.680;2023-08-31T03:08:51;5.47;;;2.50;;
70067;SDS011;57425;51.616;6.680;2023-08-31T03:11:16;3.38;;;1.90;;
70067;SDS011;57425;51.616;6.680;2023-08-31T03:13:42;3.60;;;1.98;;
70067;SDS011;57425;51.616;6.680;2023-08-31T03:16:08;5.22;;;2.47;;
70067;SDS011;57425;51.616;6.680;2023-08-31T03:18:34;3.92;;;2.00;;
70067;SDS011;57425;51.616;6.680;2023-08-31T03:20:59;4.75;;;2.28;;
70067;SDS011;57425;51.616;6.680;2023-08-31T03:23:25;3.58;;;2.40;;
70067;SDS011;57425;51.616;6.680;2023-08-31T03:25:51;3.67;;;2.10;;
70067;SDS011;57425;51.616;6.680;2023-08-31T03:28:17;4.72;;;2.33;;
70067;SDS011;57425;51.616;6.680;2023-08-31T03:30:42;3.53;;;2.00;;
70067;SDS011;57425;51.616;6.680;2023-08-31T03:33:10;3.10;;;1.80;;
70067;SDS011;57425;51.616;6.680;2023-08-31T03:35:36;3.22;;;2.17;;
70067;SDS011;57425;51.616;6.680;2023-08-31T03:38:01;7.40;;;2.40;;
70067;SDS011;57425;51.616;6.680;2023-08-31T03:40:28;4.38;;;2.03;;
70067;SDS011;57425;51.616;6.680;2023-08-31T03:42:54;4.10;;;1.80;;
70067;SDS011;57425;51.616;6.680;2023-08-31T03:45:20;9.18;;;2.17;;
70067;SDS011;57425;51.616;6.680;2023-08-31T03:47:45;4.05;;;2.13;;
70067;SDS011;57425;51.616;6.680;2023-08-31T03:50:11;3.78;;;2.50;;
70067;SDS011;57425;51.616;6.680;2023-08-31T03:52:37;3.40;;;2.10;;
70067;SDS011;57425;51.616;6.680;2023-08-31T03:55:02;2.80;;;2.08;;
70067;SDS011;57425;51.616;6.680;2023-08-31T03:57:28;2.85;;;2.00;;
70067;SDS011;57425;51.616;6.680;2023-08-31T03:59:54;3.75;;;1.88;;
70067;SDS011;57425;51.616;6.680;2023-08-31T04:02:19;6.03;;;2.70;;
70067;SDS011;57425;51.616;6.680;2023-08-31T04:04:45;4.63;;;2.38;;
70067;SDS011;57425;51.616;6.680;2023-08-31T04:07:10;7.68;;;2.25;;
70067;SDS011;57425;51.616;6.680;2023-08-31T04:09:36;10.90;;;2.13;;
70067;SDS011;57425;51.616;6.680;2023-08-31T04:12:02;3.15;;;2.03;;
70067;SDS011;57425;51.616;6.680;2023-08-31T04:14:29;5.30;;;2.67;;
70067;SDS011;57425;51.616;6.680;2023-08-31T04:16:55;3.88;;;2.33;;
70067;SDS011;57425;51.616;6.680;2023-08-31T04:19:21;4.57;;;2.22;;
70067;SDS011;57425;51.616;6.680;2023-08-31T04:21:46;3.25;;;2.15;;
70067;SDS011;57425;51.616;6.680;2023-08-31T04:24:12;5.03;;;2.20;;
70067;SDS011;57425;51.616;6.680;2023-08-31T04:26:38;6.07;;;2.58;;
70067;SDS011;57425;51.616;6.680;2023-08-31T04:29:04;6.03;;;2.95;;
70067;SDS011;57425;51.616;6.680;2023-08-31T04:31:31;5.95;;;3.22;;
70067;SDS011;57425;51.616;6.680;2023-08-31T04:33:57;5.13;;;2.60;;
70067;SDS011;57425;51.616;6.680;2023-08-31T04:36:23;4.55;;;2.47;;
70067;SDS011;57425;51.616;6.680;2023-08-31T04:38:51;6.05;;;2.50;;
70067;SDS011;57425;51.616;6.680;2023-08-31T04:41:17;10.80;;;3.05;;
70067;SDS011;57425;51.616;6.680;2023-08-31T04:43:42;6.07;;;2.60;;
70067;SDS011;57425;51.616;6.680;2023-08-31T04:46:08;5.00;;;2.22;;
70067;SDS011;57425;51.616;6.680;2023-08-31T04:48:34;7.05;;;2.47;;
70067;SDS011;57425;51.616;6.680;2023-08-31T04:51:01;5.05;;;2.55;;
70067;SDS011;57425;51.616;6.680;2023-08-31T04:53:28;3.38;;;2.38;;
70067;SDS011;57425;51.616;6.680;2023-08-31T04:55:58;5.25;;;2.72;;
70067;SDS011;57425;51.616;6.680;2023-08-31T04:58:23;9.88;;;2.80;;
70067;SDS011;57425;51.616;6.680;2023-08-31T05:00:51;5.03;;;2.53;;
70067;SDS011;57425;51.616;6.680;2023-08-31T05:03:16;5.05;;;2.83;;
70067;SDS011;57425;51.616;6.680;2023-08-31T05:05:42;4.38;;;2.45;;
70067;SDS011;57425;51.616;6.680;2023-08-31T05:08:08;3.90;;;1.98;;
70067;SDS011;57425;51.616;6.680;2023-08-31T05:10:34;6.03;;;2.28;;
70067;SDS011;57425;51.616;6.680;2023-08-31T05:13:00;5.80;;;2.80;;
70067;SDS011;57425;51.616;6.680;2023-08-31T05:15:26;18.33;;;2.53;;
70067;SDS011;57425;51.616;6.680;2023-08-31T05:17:55;4.90;;;2.47;;
70067;SDS011;57425;51.616;6.680;2023-08-31T05:20:21;3.55;;;2.10;;
70067;SDS011;57425;51.616;6.680;2023-08-31T05:22:48;7.88;;;2.53;;
70067;SDS011;57425;51.616;6.680;2023-08-31T05:25:14;5.68;;;3.38;;
70067;SDS011;57425;51.616;6.680;2023-08-31T05:27:39;5.32;;;3.00;;
70067;SDS011;57425;51.616;6.680;2023-08-31T05:30:05;6.32;;;3.08;;
70067;SDS011;57425;51.616;6.680;2023-08-31T05:32:31;11.00;;;3.05;;
70067;SDS011;57425;51.616;6.680;2023-08-31T05:34:57;4.88;;;2.78;;
70067;SDS011;57425;51.616;6.680;2023-08-31T05:37:24;4.03;;;2.33;;
70067;SDS011;57425;51.616;6.680;2023-08-31T05:39:50;5.68;;;2.65;;
70067;SDS011;57425;51.616;6.680;2023-08-31T05:42:16;4.68;;;2.50;;
70067;SDS011;57425;51.616;6.680;2023-08-31T05:44:41;9.07;;;2.60;;
70067;SDS011;57425;51.616;6.680;2023-08-31T05:47:07;4.35;;;2.88;;
70067;SDS011;57425;51.616;6.680;2023-08-31T05:49:34;5.05;;;2.72;;
70067;SDS011;57425;51.616;6.680;2023-08-31T05:51:59;4.90;;;2.40;;
70067;SDS011;57425;51.616;6.680;2023-08-31T05:54:25;3.00;;;2.20;;
70067;SDS011;57425;51.616;6.680;2023-08-31T05:56:52;4.18;;;2.65;;
70067;SDS011;57425;51.616;6.680;2023-08-31T05:59:18;4.70;;;2.25;;
70067;SDS011;57425;51.616;6.680;2023-08-31T06:01:43;7.35;;;2.45;;
70067;SDS011;57425;51.616;6.680;2023-08-31T06:04:09;3.75;;;2.30;;
70067;SDS011;57425;51.616;6.680;2023-08-31T06:06:35;10.00;;;2.63;;
70067;SDS011;57425;51.616;6.680;2023-08-31T06:09:00;3.70;;;2.72;;
70067;SDS011;57425;51.616;6.680;2023-08-31T06:11:26;5.32;;;2.22;;
70067;SDS011;57425;51.616;6.680;2023-08-31T06:13:52;5.75;;;2.78;;
70067;SDS011;57425;51.616;6.680;2023-08-31T06:16:17;4.38;;;2.55;;
70067;SDS011;57425;51.616;6.680;2023-08-31T06:18:43;3.92;;;2.72;;
70067;SDS011;57425;51.616;6.680;2023-08-31T06:21:09;5.60;;;2.35;;
70067;SDS011;57425;51.616;6.680;2023-08-31T06:23:35;5.88;;;2.65;;
70067;SDS011;57425;51.616;6.680;2023-08-31T06:26:00;4.22;;;2.50;;
70067;SDS011;57425;51.616;6.680;2023-08-31T06:28:26;10.77;;;2.47;;
70067;SDS011;57425;51.616;6.680;2023-08-31T06:30:52;5.35;;;2.60;;
70067;SDS011;57425;51.616;6.680;2023-08-31T06:33:17;5.43;;;1.92;;
70067;SDS011;57425;51.616;6.680;2023-08-31T06:35:46;3.78;;;2.05;;
70067;SDS011;57425;51.616;6.680;2023-08-31T06:38:16;5.38;;;2.50;;
70067;SDS011;57425;51.616;6.680;2023-08-31T06:40:42;6.55;;;2.10;;
70067;SDS011;57425;51.616;6.680;2023-08-31T06:43:08;3.50;;;2.22;;
70067;SDS011;57425;51.616;6.680;2023-08-31T06:45:34;3.88;;;2.20;;
70067;SDS011;57425;51.616;6.680;2023-08-31T06:48:00;3.63;;;2.10;;
70067;SDS011;57425;51.616;6.680;2023-08-31T06:50:26;4.22;;;2.40;;
70067;SDS011;57425;51.616;6.680;2023-08-31T06:52:52;3.60;;;2.35;;
70067;SDS011;57425;51.616;6.680;2023-08-31T06:55:17;3.72;;;2.10;;
70067;SDS011;57425;51.616;6.680;2023-08-31T06:57:43;7.32;;;2.63;;
70067;SDS011;57425;51.616;6.680;2023-08-31T07:00:10;5.80;;;2.10;;
70067;SDS011;57425;51.616;6.680;2023-08-31T07:02:39;6.75;;;2.00;;
70067;SDS011;57425;51.616;6.680;2023-08-31T07:05:05;9.32;;;2.90;;
70067;SDS011;57425;51.616;6.680;2023-08-31T07:07:31;4.80;;;2.30;;
70067;SDS011;57425;51.616;6.680;2023-08-31T07:09:57;16.52;;;2.20;;
70067;SDS011;57425;51.616;6.680;2023-08-31T07:12:22;3.42;;;1.85;;
70067;SDS011;57425;51.616;6.680;2023-08-31T07:14:48;4.78;;;1.80;;
70067;SDS011;57425;51.616;6.680;2023-08-31T07:17:17;3.72;;;1.75;;
70067;SDS011;57425;51.616;6.680;2023-08-31T07:19:44;2.75;;;1.83;;
70067;SDS011;57425;51.616;6.680;2023-08-31T07:22:09;2.88;;;1.83;;
70067;SDS011;57425;51.616;6.680;2023-08-31T07:24:35;3.75;;;2.38;;
70067;SDS011;57425;51.616;6.680;2023-08-31T07:27:01;3.58;;;1.98;;
70067;SDS011;57425;51.616;6.680;2023-08-31T07:29:28;5.13;;;2.13;;
70067;SDS011;57425;51.616;6.680;2023-08-31T07:31:54;2.50;;;1.70;;
70067;SDS011;57425;51.616;6.680;2023-08-31T07:34:19;11.20;;;2.83;;
70067;SDS011;57425;51.616;6.680;2023-08-31T07:36:45;3.65;;;1.85;;
70067;SDS011;57425;51.616;6.680;2023-08-31T07:39:11;5.20;;;2.17;;
70067;SDS011;57425;51.616;6.680;2023-08-31T07:41:37;3.33;;;1.83;;
70067;SDS011;57425;51.616;6.680;2023-08-31T07:44:03;4.32;;;2.08;;
70067;SDS011;57425;51.616;6.680;2023-08-31T07:46:29;11.52;;;2.00;;
70067;SDS011;57425;51.616;6.680;2023-08-31T07:48:55;2.05;;;1.67;;
70067;SDS011;57425;51.616;6.680;2023-08-31T07:51:20;3.35;;;1.80;;
70067;SDS011;57425;51.616;6.680;2023-08-31T07:53:48;4.25;;;1.80;;
70067;SDS011;57425;51.616;6.680;2023-08-31T07:56:14;4.80;;;2.05;;
70067;SDS011;57425;51.616;6.680;2023-08-31T07:58:39;1.92;;;1.40;;
70067;SDS011;57425;51.616;6.680;2023-08-31T08:01:05;4.47;;;1.58;;
70067;SDS011;57425;51.616;6.680;2023-08-31T08:03:30;5.82;;;1.65;;
70067;SDS011;57425;51.616;6.680;2023-08-31T08:05:56;4.78;;;1.73;;
70067;SDS011;57425;51.616;6.680;2023-08-31T08:08:22;3.47;;;1.70;;
70067;SDS011;57425;51.616;6.680;2023-08-31T08:10:51;2.55;;;1.38;;
70067;SDS011;57425;51.616;6.680;2023-08-31T08:13:17;6.60;;;1.70;;
70067;SDS011;57425;51.616;6.680;2023-08-31T08:15:44;4.05;;;1.77;;
70067;SDS011;57425;51.616;6.680;2023-08-31T08:18:10;3.08;;;1.63;;
70067;SDS011;57425;51.616;6.680;2023-08-31T08:20:36;2.08;;;1.45;;
70067;SDS011;57425;51.616;6.680;2023-08-31T08:23:01;4.35;;;1.60;;
70067;SDS011;57425;51.616;6.680;2023-08-31T08:25:27;5.45;;;1.90;;
70067;SDS011;57425;51.616;6.680;2023-08-31T08:27:53;3.17;;;1.13;;
70067;SDS011;57425;51.616;6.680;2023-08-31T08:30:18;2.90;;;1.88;;
70067;SDS011;57425;51.616;6.680;2023-08-31T08:32:44;3.08;;;1.80;;
70067;SDS011;57425;51.616;6.680;2023-08-31T08:35:10;3.38;;;1.45;;
70067;SDS011;57425;51.616;6.680;2023-08-31T08:37:35;3.50;;;1.60;;
70067;SDS011;57425;51.616;6.680;2023-08-31T08:40:01;5.50;;;2.03;;
70067;SDS011;57425;51.616;6.680;2023-08-31T08:42:29;4.28;;;1.73;;
70067;SDS011;57425;51.616;6.680;2023-08-31T08:44:56;2.60;;;1.45;;
70067;SDS011;57425;51.616;6.680;2023-08-31T08:47:22;5.78;;;1.60;;
70067;SDS011;57425;51.616;6.680;2023-08-31T08:49:50;2.63;;;1.42;;
70067;SDS011;57425;51.616;6.680;2023-08-31T08:52:16;14.82;;;2.05;;
70067;SDS011;57425;51.616;6.680;2023-08-31T08:54:43;6.07;;;1.58;;
70067;SDS011;57425;51.616;6.680;2023-08-31T08:57:09;3.47;;;1.42;;
70067;SDS011;57425;51.616;6.680;2023-08-31T08:59:35;3.40;;;2.13;;
70067;SDS011;57425;51.616;6.680;2023-08-31T09:02:01;7.15;;;1.85;;
70067;SDS011;57425;51.616;6.680;2023-08-31T09:04:28;2.90;;;1.60;;
70067;SDS011;57425;51.616;6.680;2023-08-31T09:06:57;2.03;;;1.33;;
70067;SDS011;57425;51.616;6.680;2023-08-31T09:09:25;5.88;;;2.10;;
70067;SDS011;57425;51.616;6.680;2023-08-31T09:11:51;2.63;;;1.35;;
70067;SDS011;57425;51.616;6.680;2023-08-31T09:14:19;2.85;;;1.88;;
70067;SDS011;57425;51.616;6.680;2023-08-31T09:16:49;4.38;;;1.75;;
70067;SDS011;57425;51.616;6.680;2023-08-31T09:19:20;2.05;;;1.17;;
70067;SDS011;57425;51.616;6.680;2023-08-31T09:21:47;4.57;;;1.63;;
70067;SDS011;57425;51.616;6.680;2023-08-31T09:24:14;3.22;;;1.92;;
70067;SDS011;57425;51.616;6.680;2023-08-31T09:26:47;2.88;;;1.30;;
70067;SDS011;57425;51.616;6.680;2023-08-31T09:29:16;5.53;;;1.27;;
70067;SDS011;57425;51.616;6.680;2023-08-31T09:31:43;7.00;;;1.80;;
70067;SDS011;57425;51.616;6.680;2023-08-31T09:34:10;3.47;;;1.58;;
70067;SDS011;57425;51.616;6.680;2023-08-31T09:36:39;6.32;;;2.28;;
70067;SDS011;57425;51.616;6.680;2023-08-31T09:39:08;9.43;;;1.58;;
70067;SDS011;57425;51.616;6.680;2023-08-31T09:41:34;5.07;;;1.52;;
70067;SDS011;57425;51.616;6.680;2023-08-31T09:44:17;2.08;;;1.55;;
70067;SDS011;57425;51.616;6.680;2023-08-31T09:46:44;6.25;;;1.40;;
70067;SDS011;57425;51.616;6.680;2023-08-31T09:49:11;3.55;;;1.33;;
70067;SDS011;57425;51.616;6.680;2023-08-31T09:51:39;4.28;;;1.38;;
70067;SDS011;57425;51.616;6.680;2023-08-31T09:54:09;4.82;;;1.65;;
70067;SDS011;57425;51.616;6.680;2023-08-31T09:56:39;4.30;;;1.42;;
70067;SDS011;57425;51.616;6.680;2023-08-31T09:59:06;2.20;;;1.15;;
70067;SDS011;57425;51.616;6.680;2023-08-31T10:01:33;6.25;;;1.60;;
70067;SDS011;57425;51.616;6.680;2023-08-31T10:03:59;3.65;;;1.10;;
70067;SDS011;57425;51.616;6.680;2023-08-31T10:06:25;3.22;;;1.20;;
70067;SDS011;57425;51.616;6.680;2023-08-31T10:08:52;4.43;;;1.30;;
70067;SDS011;57425;51.616;6.680;2023-08-31T10:11:18;3.28;;;1.50;;
70067;SDS011;57425;51.616;6.680;2023-08-31T10:13:47;2.20;;;1.30;;
70067;SDS011;57425;51.616;6.680;2023-08-31T10:16:14;2.40;;;1.10;;
70067;SDS011;57425;51.616;6.680;2023-08-31T10:18:41;2.22;;;1.10;;
70067;SDS011;57425;51.616;6.680;2023-08-31T10:21:07;3.85;;;1.20;;
70067;SDS011;57425;51.616;6.680;2023-08-31T10:23:33;1.17;;;0.98;;
70067;SDS011;57425;51.616;6.680;2023-08-31T10:26:00;1.85;;;0.90;;
70067;SDS011;57425;51.616;6.680;2023-08-31T10:28:28;0.93;;;0.68;;
70067;SDS011;57425;51.616;6.680;2023-08-31T10:33:46;3.80;;;1.10;;
70067;SDS011;57425;51.616;6.680;2023-08-31T10:36:20;2.90;;;1.25;;
70067;SDS011;57425;51.616;6.680;2023-08-31T10:39:31;4.20;;;1.38;;
70067;SDS011;57425;51.616;6.680;2023-08-31T10:41:36;6.85;;;1.00;;
70067;SDS011;57425;51.616;6.680;2023-08-31T10:44:02;2.30;;;1.27;;
70067;SDS011;57425;51.616;6.680;2023-08-31T10:46:47;2.20;;;0.90;;
70067;SDS011;57425;51.616;6.680;2023-08-31T10:49:14;3.75;;;1.02;;
70067;SDS011;57425;51.616;6.680;2023-08-31T10:51:43;3.28;;;1.52;;
70067;SDS011;57425;51.616;6.680;2023-08-31T10:59:41;3.08;;;1.10;;
70067;SDS011;57425;51.616;6.680;2023-08-31T11:02:11;2.58;;;1.20;;
70067;SDS011;57425;51.616;6.680;2023-08-31T11:05:11;1.40;;;0.95;;
70067;SDS011;57425;51.616;6.680;2023-08-31T11:07:46;7.75;;;1.33;;
70067;SDS011;57425;51.616;6.680;2023-08-31T11:12:41;2.08;;;1.00;;
70067;SDS011;57425;51.616;6.680;2023-08-31T11:15:10;2.10;;;1.02;;
70067;SDS011;57425;51.616;6.680;2023-08-31T11:17:39;4.47;;;1.42;;
70067;SDS011;57425;51.616;6.680;2023-08-31T11:20:05;3.22;;;1.10;;
70067;SDS011;57425;51.616;6.680;2023-08-31T11:22:34;4.50;;;1.30;;
70067;SDS011;57425;51.616;6.680;2023-08-31T11:25:04;10.52;;;1.45;;
70067;SDS011;57425;51.616;6.680;2023-08-31T11:27:30;5.65;;;1.88;;
70067;SDS011;57425;51.616;6.680;2023-08-31T11:29:56;1.85;;;1.08;;
70067;SDS011;57425;51.616;6.680;2023-08-31T11:32:24;3.60;;;1.40;;
70067;SDS011;57425;51.616;6.680;2023-08-31T11:34:50;2.53;;;1.15;;
70067;SDS011;57425;51.616;6.680;2023-08-31T11:37:15;5.13;;;1.70;;
70067;SDS011;57425;51.616;6.680;2023-08-31T11:39:51;2.42;;;1.30;;
70067;SDS011;57425;51.616;6.680;2023-08-31T11:42:18;1.88;;;1.55;;
70067;SDS011;57425;51.616;6.680;2023-08-31T11:44:46;2.05;;;1.08;;
70067;SDS011;57425;51.616;6.680;2023-08-31T11:47:17;2.58;;;1.10;;
70067;SDS011;57425;51.616;6.680;2023-08-31T11:49:44;2.60;;;1.17;;
70067;SDS011;57425;51.616;6.680;2023-08-31T11:52:12;4.03;;;1.23;;
70067;SDS011;57425;51.616;6.680;2023-08-31T11:54:38;4.30;;;1.10;;
70067;SDS011;57425;51.616;6.680;2023-08-31T11:57:08;4.22;;;1.30;;
70067;SDS011;57425;51.616;6.680;2023-08-31T11:59:35;7.43;;;1.20;;
70067;SDS011;57425;51.616;6.680;2023-08-31T12:02:04;2.95;;;0.98;;
70067;SDS011;57425;51.616;6.680;2023-08-31T12:04:32;2.72;;;1.10;;
70067;SDS011;57425;51.616;6.680;2023-08-31T12:07:02;2.17;;;1.00;;
70067;SDS011;57425;51.616;6.680;2023-08-31T12:09:31;4.03;;;1.40;;
70067;SDS011;57425;51.616;6.680;2023-08-31T12:11:57;7.75;;;0.80;;
70067;SDS011;57425;51.616;6.680;2023-08-31T12:14:24;2.95;;;0.88;;
70067;SDS011;57425;51.616;6.680;2023-08-31T12:16:51;1.50;;;0.85;;
70067;SDS011;57425;51.616;6.680;2023-08-31T12:19:17;4.18;;;1.02;;
70067;SDS011;57425;51.616;6.680;2023-08-31T12:21:44;2.92;;;0.85;;
70067;SDS011;57425;51.616;6.680;2023-08-31T12:24:11;1.25;;;0.75;;
70067;SDS011;57425;51.616;6.680;2023-08-31T12:26:37;3.67;;;0.90;;
70067;SDS011;57425;51.616;6.680;2023-08-31T12:29:03;3.13;;;1.30;;
70067;SDS011;57425;51.616;6.680;2023-08-31T12:31:32;1.42;;;0.60;;
70067;SDS011;57425;51.616;6.680;2023-08-31T12:33:58;1.08;;;0.73;;
70067;SDS011;57425;51.616;6.680;2023-08-31T12:36:25;1.08;;;0.70;;
70067;SDS011;57425;51.616;6.680;2023-08-31T12:38:51;3.33;;;1.10;;
70067;SDS011;57425;51.616;6.680;2023-08-31T12:41:17;4.70;;;1.45;;
70067;SDS011;57425;51.616;6.680;2023-08-31T12:43:44;3.38;;;1.33;;
70067;SDS011;57425;51.616;6.680;2023-08-31T12:46:10;1.05;;;0.65;;
70067;SDS011;57425;51.616;6.680;2023-08-31T12:48:38;2.35;;;0.80;;
70067;SDS011;57425;51.616;6.680;2023-08-31T12:51:04;3.28;;;0.90;;
70067;SDS011;57425;51.616;6.680;2023-08-31T12:53:31;3.92;;;0.98;;
70067;SDS011;57425;51.616;6.680;2023-08-31T12:55:57;2.03;;;1.10;;
70067;SDS011;57425;51.616;6.680;2023-08-31T12:58:22;2.78;;;0.95;;
70067;SDS011;57425;51.616;6.680;2023-08-31T13:00:48;3.25;;;1.35;;
70067;SDS011;57425;51.616;6.680;2023-08-31T13:03:15;7.97;;;1.75;;
70067;SDS011;57425;51.616;6.680;2023-08-31T13:05:41;2.22;;;1.40;;
70067;SDS011;57425;51.616;6.680;2023-08-31T13:08:07;1.25;;;0.90;;
70067;SDS011;57425;51.616;6.680;2023-08-31T13:10:34;5.85;;;1.00;;
70067;SDS011;57425;51.616;6.680;2023-08-31T13:13:00;3.65;;;1.35;;
70067;SDS011;57425;51.616;6.680;2023-08-31T13:15:26;1.90;;;0.90;;
70067;SDS011;57425;51.616;6.680;2023-08-31T13:17:52;3.25;;;1.23;;
70067;SDS011;57425;51.616;6.680;2023-08-31T13:20:17;4.72;;;1.10;;
70067;SDS011;57425;51.616;6.680;2023-08-31T13:22:43;1.63;;;0.80;;
70067;SDS011;57425;51.616;6.680;2023-08-31T13:25:09;4.93;;;1.13;;
70067;SDS011;57425;51.616;6.680;2023-08-31T13:27:36;1.17;;;0.93;;
70067;SDS011;57425;51.616;6.680;2023-08-31T13:30:02;2.65;;;1.10;;
70067;SDS011;57425;51.616;6.680;2023-08-31T13:32:31;2.28;;;1.20;;
70067;SDS011;57425;51.616;6.680;2023-08-31T13:34:58;10.13;;;1.38;;
70067;SDS011;57425;51.616;6.680;2023-08-31T13:37:23;5.57;;;0.98;;
70067;SDS011;57425;51.616;6.680;2023-08-31T13:39:49;4.45;;;1.40;;
70067;SDS011;57425;51.616;6.680;2023-08-31T13:42:21;3.55;;;1.10;;
70067;SDS011;57425;51.616;6.680;2023-08-31T13:44:47;4.20;;;1.25;;
70067;SDS011;57425;51.616;6.680;2023-08-31T13:47:13;1.45;;;0.95;;
70067;SDS011;57425;51.616;6.680;2023-08-31T13:49:38;13.82;;;1.60;;
70067;SDS011;57425;51.616;6.680;2023-08-31T13:52:04;5.13;;;1.27;;
70067;SDS011;57425;51.616;6.680;2023-08-31T13:54:31;3.45;;;1.27;;
70067;SDS011;57425;51.616;6.680;2023-08-31T13:56:58;4.50;;;1.60;;
70067;SDS011;57425;51.616;6.680;2023-08-31T13:59:23;6.63;;;2.08;;
70067;SDS011;57425;51.616;6.680;2023-08-31T14:01:52;3.20;;;1.55;;
70067;SDS011;57425;51.616;6.680;2023-08-31T14:04:18;9.63;;;1.60;;
70067;SDS011;57425;51.616;6.680;2023-08-31T14:06:44;3.47;;;1.65;;
70067;SDS011;57425;51.616;6.680;2023-08-31T14:09:10;2.78;;;1.30;;
70067;SDS011;57425;51.616;6.680;2023-08-31T14:11:35;2.25;;;1.60;;
70067;SDS011;57425;51.616;6.680;2023-08-31T14:14:02;3.05;;;1.48;;
70067;SDS011;57425;51.616;6.680;2023-08-31T14:16:30;3.05;;;1.40;;
70067;SDS011;57425;51.616;6.680;2023-08-31T14:18:56;2.17;;;1.35;;
70067;SDS011;57425;51.616;6.680;2023-08-31T14:21:21;2.88;;;1.27;;
70067;SDS011;57425;51.616;6.680;2023-08-31T14:23:47;2.53;;;1.30;;
70067;SDS011;57425;51.616;6.680;2023-08-31T14:26:12;4.70;;;1.45;;
70067;SDS011;57425;51.616;6.680;2023-08-31T14:28:38;2.83;;;1.58;;
70067;SDS011;57425;51.616;6.680;2023-08-31T14:31:04;2.55;;;1.48;;
70067;SDS011;57425;51.616;6.680;2023-08-31T14:33:31;3.78;;;1.45;;
70067;SDS011;57425;51.616;6.680;2023-08-31T14:35:56;2.75;;;1.10;;
70067;SDS011;57425;51.616;6.680;2023-08-31T14:38:22;2.80;;;1.20;;
70067;SDS011;57425;51.616;6.680;2023-08-31T14:40:48;2.20;;;1.30;;
70067;SDS011;57425;51.616;6.680;2023-08-31T14:43:14;4.85;;;1.77;;
70067;SDS011;57425;51.616;6.680;2023-08-31T14:45:39;1.30;;;1.10;;
70067;SDS011;57425;51.616;6.680;2023-08-31T14:48:05;3.45;;;1.17;;
70067;SDS011;57425;51.616;6.680;2023-08-31T14:50:31;3.05;;;1.40;;
70067;SDS011;57425;51.616;6.680;2023-08-31T14:52:57;4.15;;;1.35;;
70067;SDS011;57425;51.616;6.680;2023-08-31T14:55:22;2.20;;;1.27;;
70067;SDS011;57425;51.616;6.680;2023-08-31T14:57:48;3.63;;;1.20;;
70067;SDS011;57425;51.616;6.680;2023-08-31T15:00:16;4.00;;;1.50;;
70067;SDS011;57425;51.616;6.680;2023-08-31T15:02:41;6.90;;;1.52;;
70067;SDS011;57425;51.616;6.680;2023-08-31T15:05:07;5.82;;;1.52;;